sensor_id;sensor_type;location;lat;lon;timestamp;P1;durP1;ratioP1;P2;durP2;ratioP2
75470;SDS011;64051;46.320;48.028;2023-02-28T00:00:46;11.68;;;4.15;;
75470;SDS011;64051;46.320;48.028;2023-02-28T00:03:13;18.92;;;5.70;;
75470;SDS011;64051;46.320;48.028;2023-02-28T00:05:39;15.95;;;4.25;;
75470;SDS011;64051;46.320;48.028;2023-02-28T00:08:05;39.15;;;4.22;;
75470;SDS011;64051;46.320;48.028;2023-02-28T00:10:31;11.10;;;4.53;;
75470;SDS011;64051;46.320;48.028;2023-02-28T00:13:04;18.60;;;4.32;;
75470;SDS011;64051;46.320;48.028;2023-02-28T00:15:31;16.67;;;3.67;;
75470;SDS011;64051;46.320;48.028;2023-02-28T00:17:58;11.95;;;3.85;;
75470;SDS011;64051;46.320;48.028;2023-02-28T00:20:24;17.08;;;3.88;;
75470;SDS011;64051;46.320;48.028;2023-02-28T00:22:51;7.97;;;3.10;;
75470;SDS011;64051;46.320;48.028;2023-02-28T00:25:19;6.82;;;2.80;;
75470;SDS011;64051;46.320;48.028;2023-02-28T00:27:46;10.90;;;3.65;;
75470;SDS011;64051;46.320;48.028;2023-02-28T00:30:15;8.45;;;2.63;;
75470;SDS011;64051;46.320;48.028;2023-02-28T00:32:43;12.25;;;4.50;;
75470;SDS011;64051;46.320;48.028;2023-02-28T00:35:09;11.75;;;4.05;;
75470;SDS011;64051;46.320;48.028;2023-02-28T00:37:36;12.43;;;4.68;;
75470;SDS011;64051;46.320;48.028;2023-02-28T00:40:04;15.85;;;4.20;;
75470;SDS011;64051;46.320;48.028;2023-02-28T00:42:32;10.00;;;4.25;;
75470;SDS011;64051;46.320;48.028;2023-02-28T00:44:59;14.90;;;4.68;;
75470;SDS011;64051;46.320;48.028;2023-02-28T00:47:25;14.23;;;4.88;;
75470;SDS011;64051;46.320;48.028;2023-02-28T00:49:51;16.60;;;3.78;;
75470;SDS011;64051;46.320;48.028;2023-02-28T00:52:17;7.53;;;2.92;;
75470;SDS011;64051;46.320;48.028;2023-02-28T00:54:43;11.82;;;3.95;;
75470;SDS011;64051;46.320;48.028;2023-02-28T00:57:09;11.00;;;3.83;;
75470;SDS011;64051;46.320;48.028;2023-02-28T00:59:35;7.63;;;2.72;;
75470;SDS011;64051;46.320;48.028;2023-02-28T01:02:01;10.43;;;3.35;;
75470;SDS011;64051;46.320;48.028;2023-02-28T01:04:27;15.02;;;4.35;;
75470;SDS011;64051;46.320;48.028;2023-02-28T01:06:53;10.85;;;3.97;;
75470;SDS011;64051;46.320;48.028;2023-02-28T01:09:19;13.07;;;5.07;;
75470;SDS011;64051;46.320;48.028;2023-02-28T01:11:45;9.73;;;3.70;;
75470;SDS011;64051;46.320;48.028;2023-02-28T01:14:12;17.60;;;4.78;;
75470;SDS011;64051;46.320;48.028;2023-02-28T01:16:39;15.88;;;3.78;;
75470;SDS011;64051;46.320;48.028;2023-02-28T01:19:05;13.13;;;4.72;;
75470;SDS011;64051;46.320;48.028;2023-02-28T01:21:31;7.88;;;3.53;;
75470;SDS011;64051;46.320;48.028;2023-02-28T01:23:57;10.05;;;4.47;;
75470;SDS011;64051;46.320;48.028;2023-02-28T01:26:23;16.70;;;5.25;;
75470;SDS011;64051;46.320;48.028;2023-02-28T01:28:50;15.57;;;5.47;;
75470;SDS011;64051;46.320;48.028;2023-02-28T01:31:17;19.63;;;5.00;;
75470;SDS011;64051;46.320;48.028;2023-02-28T01:33:44;11.00;;;3.97;;
75470;SDS011;64051;46.320;48.028;2023-02-28T01:36:11;8.30;;;3.40;;
75470;SDS011;64051;46.320;48.028;2023-02-28T01:38:39;13.98;;;4.20;;
75470;SDS011;64051;46.320;48.028;2023-02-28T01:41:06;9.38;;;3.58;;
75470;SDS011;64051;46.320;48.028;2023-02-28T01:46:09;14.48;;;4.72;;
75470;SDS011;64051;46.320;48.028;2023-02-28T01:48:38;10.40;;;3.97;;
75470;SDS011;64051;46.320;48.028;2023-02-28T01:51:17;10.98;;;3.97;;
75470;SDS011;64051;46.320;48.028;2023-02-28T01:53:53;14.13;;;4.20;;
75470;SDS011;64051;46.320;48.028;2023-02-28T01:56:25;11.05;;;3.85;;
75470;SDS011;64051;46.320;48.028;2023-02-28T01:58:54;10.82;;;3.97;;
75470;SDS011;64051;46.320;48.028;2023-02-28T02:01:22;13.02;;;4.40;;
75470;SDS011;64051;46.320;48.028;2023-02-28T02:03:55;12.85;;;4.35;;
75470;SDS011;64051;46.320;48.028;2023-02-28T02:06:24;7.13;;;2.60;;
75470;SDS011;64051;46.320;48.028;2023-02-28T02:08:54;7.68;;;4.10;;
75470;SDS011;64051;46.320;48.028;2023-02-28T02:11:20;14.43;;;4.60;;
75470;SDS011;64051;46.320;48.028;2023-02-28T02:13:58;13.45;;;4.13;;
75470;SDS011;64051;46.320;48.028;2023-02-28T02:16:39;17.45;;;5.03;;
75470;SDS011;64051;46.320;48.028;2023-02-28T02:43:47;13.23;;;4.90;;
75470;SDS011;64051;46.320;48.028;2023-02-28T02:46:21;18.02;;;5.28;;
75470;SDS011;64051;46.320;48.028;2023-02-28T02:49:04;16.53;;;5.10;;
75470;SDS011;64051;46.320;48.028;2023-02-28T02:51:34;12.07;;;4.55;;
75470;SDS011;64051;46.320;48.028;2023-02-28T02:54:36;11.80;;;4.97;;
75470;SDS011;64051;46.320;48.028;2023-02-28T02:57:01;22.42;;;4.80;;
75470;SDS011;64051;46.320;48.028;2023-02-28T02:59:34;12.52;;;4.47;;
75470;SDS011;64051;46.320;48.028;2023-02-28T03:02:02;20.67;;;4.43;;
75470;SDS011;64051;46.320;48.028;2023-02-28T03:04:32;11.07;;;4.53;;
75470;SDS011;64051;46.320;48.028;2023-02-28T03:07:03;17.95;;;4.15;;
75470;SDS011;64051;46.320;48.028;2023-02-28T03:09:32;12.82;;;3.97;;
75470;SDS011;64051;46.320;48.028;2023-02-28T03:11:59;11.75;;;4.70;;
75470;SDS011;64051;46.320;48.028;2023-02-28T03:14:29;14.10;;;3.42;;
75470;SDS011;64051;46.320;48.028;2023-02-28T03:30:59;17.38;;;5.15;;
75470;SDS011;64051;46.320;48.028;2023-02-28T03:33:36;13.07;;;5.18;;
75470;SDS011;64051;46.320;48.028;2023-02-28T04:26:35;21.23;;;7.65;;
75470;SDS011;64051;46.320;48.028;2023-02-28T04:29:03;8.27;;;3.83;;
75470;SDS011;64051;46.320;48.028;2023-02-28T04:31:30;11.10;;;4.35;;
75470;SDS011;64051;46.320;48.028;2023-02-28T04:33:57;11.02;;;4.35;;
75470;SDS011;64051;46.320;48.028;2023-02-28T04:36:23;12.75;;;4.78;;
75470;SDS011;64051;46.320;48.028;2023-02-28T04:38:51;13.73;;;4.85;;
75470;SDS011;64051;46.320;48.028;2023-02-28T04:41:17;14.45;;;5.75;;
75470;SDS011;64051;46.320;48.028;2023-02-28T04:43:43;11.30;;;3.92;;
75470;SDS011;64051;46.320;48.028;2023-02-28T04:46:09;10.55;;;4.32;;
75470;SDS011;64051;46.320;48.028;2023-02-28T04:48:37;11.95;;;4.68;;
75470;SDS011;64051;46.320;48.028;2023-02-28T04:51:05;12.63;;;5.15;;
75470;SDS011;64051;46.320;48.028;2023-02-28T04:53:33;13.43;;;5.07;;
75470;SDS011;64051;46.320;48.028;2023-02-28T04:56:00;10.43;;;3.85;;
75470;SDS011;64051;46.320;48.028;2023-02-28T04:58:26;13.18;;;4.25;;
75470;SDS011;64051;46.320;48.028;2023-02-28T05:00:53;11.18;;;4.75;;
75470;SDS011;64051;46.320;48.028;2023-02-28T05:03:20;14.00;;;5.38;;
75470;SDS011;64051;46.320;48.028;2023-02-28T05:05:47;15.93;;;6.22;;
75470;SDS011;64051;46.320;48.028;2023-02-28T05:08:13;15.23;;;6.18;;
75470;SDS011;64051;46.320;48.028;2023-02-28T06:18:58;16.58;;;4.97;;
75470;SDS011;64051;46.320;48.028;2023-02-28T06:21:29;8.55;;;3.83;;
75470;SDS011;64051;46.320;48.028;2023-02-28T06:23:55;12.45;;;3.38;;
75470;SDS011;64051;46.320;48.028;2023-02-28T06:26:22;7.63;;;3.28;;
75470;SDS011;64051;46.320;48.028;2023-02-28T06:28:48;10.32;;;3.63;;
75470;SDS011;64051;46.320;48.028;2023-02-28T06:58:20;14.55;;;6.00;;
75470;SDS011;64051;46.320;48.028;2023-02-28T07:00:49;13.00;;;5.22;;
75470;SDS011;64051;46.320;48.028;2023-02-28T07:03:16;12.65;;;5.00;;
75470;SDS011;64051;46.320;48.028;2023-02-28T07:05:43;12.57;;;4.82;;
75470;SDS011;64051;46.320;48.028;2023-02-28T07:08:10;11.30;;;4.07;;
75470;SDS011;64051;46.320;48.028;2023-02-28T07:10:39;9.23;;;3.75;;
75470;SDS011;64051;46.320;48.028;2023-02-28T07:13:05;18.52;;;6.50;;
75470;SDS011;64051;46.320;48.028;2023-02-28T07:15:35;8.13;;;3.58;;
75470;SDS011;64051;46.320;48.028;2023-02-28T07:18:05;14.43;;;5.93;;
75470;SDS011;64051;46.320;48.028;2023-02-28T07:20:37;11.27;;;4.53;;
75470;SDS011;64051;46.320;48.028;2023-02-28T07:23:06;12.43;;;4.70;;
75470;SDS011;64051;46.320;48.028;2023-02-28T07:25:31;11.07;;;4.40;;
75470;SDS011;64051;46.320;48.028;2023-02-28T07:27:57;19.60;;;7.57;;
75470;SDS011;64051;46.320;48.028;2023-02-28T07:30:27;14.48;;;5.82;;
75470;SDS011;64051;46.320;48.028;2023-02-28T07:32:56;14.60;;;6.07;;
75470;SDS011;64051;46.320;48.028;2023-02-28T07:35:22;14.20;;;5.18;;
75470;SDS011;64051;46.320;48.028;2023-02-28T07:47:43;10.15;;;4.13;;
75470;SDS011;64051;46.320;48.028;2023-02-28T07:50:13;11.00;;;3.95;;
75470;SDS011;64051;46.320;48.028;2023-02-28T07:52:41;11.25;;;4.43;;
75470;SDS011;64051;46.320;48.028;2023-02-28T07:55:07;8.52;;;3.20;;
75470;SDS011;64051;46.320;48.028;2023-02-28T07:57:35;8.40;;;3.03;;
75470;SDS011;64051;46.320;48.028;2023-02-28T08:00:09;6.28;;;2.80;;
75470;SDS011;64051;46.320;48.028;2023-02-28T08:02:41;6.75;;;2.40;;
75470;SDS011;64051;46.320;48.028;2023-02-28T08:05:07;8.68;;;3.05;;
75470;SDS011;64051;46.320;48.028;2023-02-28T08:07:34;10.85;;;3.30;;
75470;SDS011;64051;46.320;48.028;2023-02-28T08:10:00;10.68;;;2.97;;
75470;SDS011;64051;46.320;48.028;2023-02-28T08:12:30;7.68;;;2.83;;
75470;SDS011;64051;46.320;48.028;2023-02-28T08:14:56;10.73;;;3.70;;
75470;SDS011;64051;46.320;48.028;2023-02-28T08:17:22;8.60;;;3.20;;
75470;SDS011;64051;46.320;48.028;2023-02-28T08:19:48;7.35;;;2.95;;
75470;SDS011;64051;46.320;48.028;2023-02-28T08:22:17;7.10;;;3.00;;
75470;SDS011;64051;46.320;48.028;2023-02-28T08:24:43;6.55;;;3.03;;
75470;SDS011;64051;46.320;48.028;2023-02-28T08:27:12;14.68;;;3.88;;
75470;SDS011;64051;46.320;48.028;2023-02-28T08:29:38;7.25;;;3.38;;
75470;SDS011;64051;46.320;48.028;2023-02-28T08:32:05;9.27;;;3.22;;
75470;SDS011;64051;46.320;48.028;2023-02-28T08:34:31;7.93;;;3.15;;
75470;SDS011;64051;46.320;48.028;2023-02-28T08:36:59;8.45;;;3.47;;
75470;SDS011;64051;46.320;48.028;2023-02-28T08:39:25;10.10;;;3.75;;
75470;SDS011;64051;46.320;48.028;2023-02-28T08:41:51;7.70;;;3.80;;
75470;SDS011;64051;46.320;48.028;2023-02-28T08:44:17;8.98;;;3.58;;
75470;SDS011;64051;46.320;48.028;2023-02-28T08:46:43;8.35;;;3.38;;
75470;SDS011;64051;46.320;48.028;2023-02-28T08:49:09;9.23;;;3.30;;
75470;SDS011;64051;46.320;48.028;2023-02-28T08:51:38;11.95;;;3.45;;
75470;SDS011;64051;46.320;48.028;2023-02-28T08:54:04;6.50;;;3.33;;
75470;SDS011;64051;46.320;48.028;2023-02-28T08:56:30;7.28;;;3.22;;
75470;SDS011;64051;46.320;48.028;2023-02-28T08:58:56;7.93;;;3.40;;
75470;SDS011;64051;46.320;48.028;2023-02-28T09:01:23;9.40;;;3.60;;
75470;SDS011;64051;46.320;48.028;2023-02-28T09:03:55;7.72;;;3.20;;
75470;SDS011;64051;46.320;48.028;2023-02-28T09:06:23;8.13;;;3.22;;
75470;SDS011;64051;46.320;48.028;2023-02-28T09:08:51;5.90;;;2.63;;
75470;SDS011;64051;46.320;48.028;2023-02-28T09:11:17;6.68;;;3.20;;
75470;SDS011;64051;46.320;48.028;2023-02-28T09:13:44;8.10;;;3.80;;
75470;SDS011;64051;46.320;48.028;2023-02-28T09:16:12;7.53;;;3.65;;
75470;SDS011;64051;46.320;48.028;2023-02-28T09:18:40;11.82;;;3.55;;
75470;SDS011;64051;46.320;48.028;2023-02-28T09:21:07;9.40;;;3.70;;
75470;SDS011;64051;46.320;48.028;2023-02-28T09:23:35;11.20;;;4.25;;
75470;SDS011;64051;46.320;48.028;2023-02-28T09:26:03;9.73;;;4.43;;
75470;SDS011;64051;46.320;48.028;2023-02-28T09:28:32;9.45;;;4.55;;
75470;SDS011;64051;46.320;48.028;2023-02-28T09:31:04;9.60;;;4.00;;
75470;SDS011;64051;46.320;48.028;2023-02-28T09:33:30;10.25;;;3.75;;
75470;SDS011;64051;46.320;48.028;2023-02-28T09:36:05;8.90;;;4.20;;
75470;SDS011;64051;46.320;48.028;2023-02-28T09:38:34;8.98;;;4.20;;
75470;SDS011;64051;46.320;48.028;2023-02-28T09:41:12;7.72;;;3.55;;
75470;SDS011;64051;46.320;48.028;2023-02-28T09:43:41;8.90;;;4.00;;
75470;SDS011;64051;46.320;48.028;2023-02-28T09:46:33;7.82;;;3.33;;
75470;SDS011;64051;46.320;48.028;2023-02-28T09:49:00;12.35;;;4.32;;
75470;SDS011;64051;46.320;48.028;2023-02-28T09:51:36;8.93;;;3.78;;
75470;SDS011;64051;46.320;48.028;2023-02-28T09:54:20;10.30;;;4.28;;
75470;SDS011;64051;46.320;48.028;2023-02-28T09:56:53;11.10;;;4.10;;
75470;SDS011;64051;46.320;48.028;2023-02-28T09:59:49;10.68;;;4.25;;
75470;SDS011;64051;46.320;48.028;2023-02-28T10:02:48;9.70;;;4.97;;
75470;SDS011;64051;46.320;48.028;2023-02-28T10:08:33;10.88;;;4.50;;
75470;SDS011;64051;46.320;48.028;2023-02-28T10:11:07;10.93;;;5.50;;
75470;SDS011;64051;46.320;48.028;2023-02-28T10:16:16;10.52;;;4.82;;
75470;SDS011;64051;46.320;48.028;2023-02-28T10:18:47;12.88;;;4.78;;
75470;SDS011;64051;46.320;48.028;2023-02-28T10:21:21;10.20;;;4.80;;
75470;SDS011;64051;46.320;48.028;2023-02-28T10:23:56;10.85;;;4.63;;
75470;SDS011;64051;46.320;48.028;2023-02-28T10:26:28;12.13;;;5.10;;
75470;SDS011;64051;46.320;48.028;2023-02-28T10:29:00;10.85;;;5.07;;
75470;SDS011;64051;46.320;48.028;2023-02-28T10:31:26;12.73;;;5.85;;
75470;SDS011;64051;46.320;48.028;2023-02-28T10:33:55;11.98;;;5.57;;
75470;SDS011;64051;46.320;48.028;2023-02-28T10:36:23;12.27;;;5.95;;
75470;SDS011;64051;46.320;48.028;2023-02-28T10:38:49;11.20;;;5.45;;
75470;SDS011;64051;46.320;48.028;2023-02-28T10:41:32;15.85;;;7.50;;
75470;SDS011;64051;46.320;48.028;2023-02-28T10:44:14;9.98;;;4.55;;
75470;SDS011;64051;46.320;48.028;2023-02-28T10:46:51;9.98;;;4.65;;
75470;SDS011;64051;46.320;48.028;2023-02-28T10:49:27;10.52;;;5.15;;
75470;SDS011;64051;46.320;48.028;2023-02-28T10:51:55;11.77;;;5.13;;
75470;SDS011;64051;46.320;48.028;2023-02-28T10:54:27;10.52;;;4.90;;
75470;SDS011;64051;46.320;48.028;2023-02-28T10:59:50;11.10;;;4.57;;
75470;SDS011;64051;46.320;48.028;2023-02-28T11:02:36;9.63;;;4.80;;
75470;SDS011;64051;46.320;48.028;2023-02-28T11:05:26;9.88;;;4.75;;
75470;SDS011;64051;46.320;48.028;2023-02-28T11:08:14;10.70;;;4.20;;
75470;SDS011;64051;46.320;48.028;2023-02-28T11:10:55;10.15;;;4.30;;
75470;SDS011;64051;46.320;48.028;2023-02-28T11:13:28;10.25;;;4.70;;
75470;SDS011;64051;46.320;48.028;2023-02-28T11:16:00;11.82;;;4.85;;
75470;SDS011;64051;46.320;48.028;2023-02-28T11:21:04;11.02;;;4.55;;
75470;SDS011;64051;46.320;48.028;2023-02-28T11:23:39;9.95;;;4.88;;
75470;SDS011;64051;46.320;48.028;2023-02-28T11:26:06;11.23;;;5.20;;
75470;SDS011;64051;46.320;48.028;2023-02-28T11:28:38;12.82;;;5.13;;
75470;SDS011;64051;46.320;48.028;2023-02-28T11:33:46;9.73;;;5.07;;
75470;SDS011;64051;46.320;48.028;2023-02-28T11:36:26;15.38;;;6.22;;
75470;SDS011;64051;46.320;48.028;2023-02-28T11:39:00;12.30;;;5.15;;
75470;SDS011;64051;46.320;48.028;2023-02-28T11:41:55;14.48;;;5.70;;
75470;SDS011;64051;46.320;48.028;2023-02-28T11:44:40;13.73;;;5.72;;
75470;SDS011;64051;46.320;48.028;2023-02-28T11:53:02;12.38;;;5.80;;
75470;SDS011;64051;46.320;48.028;2023-02-28T11:55:50;14.77;;;5.60;;
75470;SDS011;64051;46.320;48.028;2023-02-28T12:01:05;11.70;;;5.25;;
75470;SDS011;64051;46.320;48.028;2023-02-28T12:15:18;10.75;;;4.78;;
75470;SDS011;64051;46.320;48.028;2023-02-28T12:21:03;10.93;;;5.50;;
75470;SDS011;64051;46.320;48.028;2023-02-28T12:26:38;11.23;;;5.07;;
75470;SDS011;64051;46.320;48.028;2023-02-28T12:32:09;14.25;;;5.60;;
75470;SDS011;64051;46.320;48.028;2023-02-28T12:34:39;13.40;;;5.40;;
75470;SDS011;64051;46.320;48.028;2023-02-28T12:37:44;10.95;;;5.60;;
75470;SDS011;64051;46.320;48.028;2023-02-28T12:40:08;23.30;;;8.32;;
75470;SDS011;64051;46.320;48.028;2023-02-28T12:42:47;19.38;;;7.68;;
75470;SDS011;64051;46.320;48.028;2023-02-28T12:45:23;19.35;;;7.70;;
75470;SDS011;64051;46.320;48.028;2023-02-28T12:48:04;17.55;;;6.88;;
75470;SDS011;64051;46.320;48.028;2023-02-28T12:50:34;15.80;;;6.78;;
75470;SDS011;64051;46.320;48.028;2023-02-28T12:54:04;12.02;;;5.68;;
75470;SDS011;64051;46.320;48.028;2023-02-28T12:58:58;14.25;;;5.43;;
75470;SDS011;64051;46.320;48.028;2023-02-28T13:10:24;14.10;;;5.28;;
75470;SDS011;64051;46.320;48.028;2023-02-28T13:12:52;12.68;;;5.53;;
75470;SDS011;64051;46.320;48.028;2023-02-28T13:17:55;10.05;;;5.65;;
75470;SDS011;64051;46.320;48.028;2023-02-28T13:20:24;11.18;;;5.50;;
75470;SDS011;64051;46.320;48.028;2023-02-28T13:22:53;10.52;;;5.32;;
75470;SDS011;64051;46.320;48.028;2023-02-28T13:28:00;13.18;;;5.88;;
75470;SDS011;64051;46.320;48.028;2023-02-28T13:33:27;11.57;;;5.72;;
75470;SDS011;64051;46.320;48.028;2023-02-28T13:36:26;13.50;;;5.95;;
75470;SDS011;64051;46.320;48.028;2023-02-28T13:39:01;11.95;;;6.25;;
75470;SDS011;64051;46.320;48.028;2023-02-28T13:44:03;12.68;;;5.93;;
75470;SDS011;64051;46.320;48.028;2023-02-28T13:46:32;11.90;;;5.97;;
75470;SDS011;64051;46.320;48.028;2023-02-28T13:49:19;12.25;;;5.85;;
75470;SDS011;64051;46.320;48.028;2023-02-28T14:06:37;13.93;;;6.90;;
75470;SDS011;64051;46.320;48.028;2023-02-28T14:08:57;14.35;;;6.75;;
75470;SDS011;64051;46.320;48.028;2023-02-28T14:11:36;14.20;;;7.18;;
75470;SDS011;64051;46.320;48.028;2023-02-28T14:14:04;15.07;;;7.82;;
75470;SDS011;64051;46.320;48.028;2023-02-28T14:16:36;18.27;;;7.80;;
75470;SDS011;64051;46.320;48.028;2023-02-28T14:19:28;19.10;;;8.70;;
75470;SDS011;64051;46.320;48.028;2023-02-28T14:27:53;16.45;;;9.55;;
75470;SDS011;64051;46.320;48.028;2023-02-28T14:30:43;27.33;;;14.40;;
75470;SDS011;64051;46.320;48.028;2023-02-28T14:41:36;24.63;;;10.85;;
75470;SDS011;64051;46.320;48.028;2023-02-28T14:44:20;56.17;;;20.35;;
75470;SDS011;64051;46.320;48.028;2023-02-28T14:46:54;24.38;;;8.50;;
75470;SDS011;64051;46.320;48.028;2023-02-28T14:49:44;14.50;;;7.40;;
75470;SDS011;64051;46.320;48.028;2023-02-28T14:52:19;14.65;;;8.20;;
75470;SDS011;64051;46.320;48.028;2023-02-28T14:55:00;17.63;;;7.68;;
75470;SDS011;64051;46.320;48.028;2023-02-28T14:57:56;16.00;;;7.30;;
75470;SDS011;64051;46.320;48.028;2023-02-28T15:00:32;21.80;;;7.35;;
75470;SDS011;64051;46.320;48.028;2023-02-28T15:03:18;16.23;;;6.95;;
75470;SDS011;64051;46.320;48.028;2023-02-28T15:06:16;14.45;;;6.80;;
75470;SDS011;64051;46.320;48.028;2023-02-28T15:08:46;13.10;;;7.05;;
75470;SDS011;64051;46.320;48.028;2023-02-28T15:11:21;18.63;;;6.97;;
75470;SDS011;64051;46.320;48.028;2023-02-28T15:14:06;15.95;;;7.13;;
75470;SDS011;64051;46.320;48.028;2023-02-28T15:16:52;16.05;;;7.35;;
75470;SDS011;64051;46.320;48.028;2023-02-28T15:19:34;15.40;;;7.53;;
75470;SDS011;64051;46.320;48.028;2023-02-28T15:22:12;15.48;;;7.80;;
75470;SDS011;64051;46.320;48.028;2023-02-28T15:24:50;15.20;;;7.15;;
75470;SDS011;64051;46.320;48.028;2023-02-28T15:27:22;16.98;;;7.00;;
75470;SDS011;64051;46.320;48.028;2023-02-28T15:30:05;14.45;;;6.82;;
75470;SDS011;64051;46.320;48.028;2023-02-28T15:32:39;14.80;;;6.28;;
75470;SDS011;64051;46.320;48.028;2023-02-28T15:35:18;13.68;;;6.13;;
75470;SDS011;64051;46.320;48.028;2023-02-28T15:37:52;19.75;;;7.40;;
75470;SDS011;64051;46.320;48.028;2023-02-28T15:43:25;17.15;;;6.78;;
75470;SDS011;64051;46.320;48.028;2023-02-28T15:45:52;15.00;;;6.93;;
75470;SDS011;64051;46.320;48.028;2023-02-28T15:48:27;13.95;;;6.68;;
75470;SDS011;64051;46.320;48.028;2023-02-28T15:51:02;15.05;;;7.25;;
75470;SDS011;64051;46.320;48.028;2023-02-28T15:56:31;13.23;;;6.22;;
75470;SDS011;64051;46.320;48.028;2023-02-28T15:58:59;13.32;;;6.68;;
75470;SDS011;64051;46.320;48.028;2023-02-28T16:01:36;15.48;;;7.78;;
75470;SDS011;64051;46.320;48.028;2023-02-28T16:04:21;12.40;;;5.10;;
75470;SDS011;64051;46.320;48.028;2023-02-28T16:09:39;12.82;;;6.45;;
75470;SDS011;64051;46.320;48.028;2023-02-28T16:12:13;18.38;;;8.07;;
75470;SDS011;64051;46.320;48.028;2023-02-28T16:14:51;16.58;;;8.30;;
75470;SDS011;64051;46.320;48.028;2023-02-28T16:17:25;17.25;;;9.43;;
75470;SDS011;64051;46.320;48.028;2023-02-28T16:20:15;18.92;;;7.50;;
75470;SDS011;64051;46.320;48.028;2023-02-28T16:22:47;17.20;;;7.22;;
75470;SDS011;64051;46.320;48.028;2023-02-28T16:25:20;14.80;;;6.60;;
75470;SDS011;64051;46.320;48.028;2023-02-28T16:28:23;14.90;;;6.35;;
75470;SDS011;64051;46.320;48.028;2023-02-28T16:31:01;16.30;;;6.00;;
75470;SDS011;64051;46.320;48.028;2023-02-28T16:33:36;14.20;;;6.57;;
75470;SDS011;64051;46.320;48.028;2023-02-28T16:36:02;14.43;;;6.63;;
75470;SDS011;64051;46.320;48.028;2023-02-28T16:38:29;19.30;;;7.43;;
75470;SDS011;64051;46.320;48.028;2023-02-28T16:40:55;14.88;;;6.47;;
75470;SDS011;64051;46.320;48.028;2023-02-28T16:43:27;15.82;;;5.82;;
75470;SDS011;64051;46.320;48.028;2023-02-28T16:45:57;10.45;;;5.13;;
75470;SDS011;64051;46.320;48.028;2023-02-28T16:48:26;14.85;;;5.40;;
75470;SDS011;64051;46.320;48.028;2023-02-28T16:50:52;16.02;;;5.60;;
75470;SDS011;64051;46.320;48.028;2023-02-28T16:53:29;15.10;;;5.65;;
75470;SDS011;64051;46.320;48.028;2023-02-28T16:56:01;12.45;;;5.20;;
75470;SDS011;64051;46.320;48.028;2023-02-28T16:58:34;13.80;;;5.38;;
75470;SDS011;64051;46.320;48.028;2023-02-28T17:01:05;11.90;;;5.65;;
75470;SDS011;64051;46.320;48.028;2023-02-28T17:03:37;11.50;;;4.68;;
75470;SDS011;64051;46.320;48.028;2023-02-28T17:06:28;10.90;;;5.00;;
75470;SDS011;64051;46.320;48.028;2023-02-28T17:09:02;13.27;;;5.13;;
75470;SDS011;64051;46.320;48.028;2023-02-28T17:11:35;9.77;;;4.25;;
75470;SDS011;64051;46.320;48.028;2023-02-28T17:14:02;18.45;;;4.47;;
75470;SDS011;64051;46.320;48.028;2023-02-28T17:16:32;13.88;;;5.07;;
75470;SDS011;64051;46.320;48.028;2023-02-28T17:19:11;16.60;;;5.10;;
75470;SDS011;64051;46.320;48.028;2023-02-28T17:21:49;12.57;;;5.90;;
75470;SDS011;64051;46.320;48.028;2023-02-28T17:24:23;12.20;;;5.88;;
75470;SDS011;64051;46.320;48.028;2023-02-28T17:26:50;19.40;;;5.82;;
75470;SDS011;64051;46.320;48.028;2023-02-28T17:29:21;15.27;;;5.60;;
75470;SDS011;64051;46.320;48.028;2023-02-28T17:31:50;17.55;;;5.82;;
75470;SDS011;64051;46.320;48.028;2023-02-28T17:34:16;14.38;;;4.75;;
75470;SDS011;64051;46.320;48.028;2023-02-28T17:36:49;13.93;;;5.63;;
75470;SDS011;64051;46.320;48.028;2023-02-28T17:39:29;19.58;;;6.57;;
75470;SDS011;64051;46.320;48.028;2023-02-28T17:41:57;17.15;;;6.47;;
75470;SDS011;64051;46.320;48.028;2023-02-28T17:44:29;13.02;;;5.65;;
75470;SDS011;64051;46.320;48.028;2023-02-28T17:47:01;14.15;;;5.63;;
75470;SDS011;64051;46.320;48.028;2023-02-28T17:49:28;15.20;;;6.43;;
75470;SDS011;64051;46.320;48.028;2023-02-28T17:51:54;13.18;;;5.80;;
75470;SDS011;64051;46.320;48.028;2023-02-28T17:54:23;12.38;;;5.88;;
75470;SDS011;64051;46.320;48.028;2023-02-28T17:56:49;13.13;;;5.25;;
75470;SDS011;64051;46.320;48.028;2023-02-28T17:59:20;14.93;;;6.38;;
75470;SDS011;64051;46.320;48.028;2023-02-28T18:01:53;21.63;;;6.45;;
75470;SDS011;64051;46.320;48.028;2023-02-28T18:04:35;18.15;;;6.90;;
75470;SDS011;64051;46.320;48.028;2023-02-28T18:07:10;13.93;;;5.95;;
75470;SDS011;64051;46.320;48.028;2023-02-28T18:09:40;12.18;;;5.43;;
75470;SDS011;64051;46.320;48.028;2023-02-28T18:12:25;16.30;;;6.20;;
75470;SDS011;64051;46.320;48.028;2023-02-28T18:15:04;20.88;;;6.22;;
75470;SDS011;64051;46.320;48.028;2023-02-28T18:17:31;15.05;;;6.45;;
75470;SDS011;64051;46.320;48.028;2023-02-28T18:20:03;12.48;;;5.65;;
75470;SDS011;64051;46.320;48.028;2023-02-28T18:22:38;15.05;;;6.32;;
75470;SDS011;64051;46.320;48.028;2023-02-28T18:25:06;15.68;;;6.43;;
75470;SDS011;64051;46.320;48.028;2023-02-28T18:27:41;16.10;;;6.97;;
75470;SDS011;64051;46.320;48.028;2023-02-28T18:30:30;13.45;;;5.35;;
75470;SDS011;64051;46.320;48.028;2023-02-28T18:33:07;12.95;;;6.38;;
75470;SDS011;64051;46.320;48.028;2023-02-28T18:35:33;14.23;;;6.22;;
75470;SDS011;64051;46.320;48.028;2023-02-28T18:38:16;16.17;;;5.85;;
75470;SDS011;64051;46.320;48.028;2023-02-28T18:41:05;15.63;;;6.22;;
75470;SDS011;64051;46.320;48.028;2023-02-28T18:43:34;12.90;;;5.60;;
75470;SDS011;64051;46.320;48.028;2023-02-28T18:46:05;19.95;;;6.85;;
75470;SDS011;64051;46.320;48.028;2023-02-28T18:48:39;20.13;;;7.47;;
75470;SDS011;64051;46.320;48.028;2023-02-28T18:51:16;16.08;;;6.93;;
75470;SDS011;64051;46.320;48.028;2023-02-28T18:53:52;18.88;;;6.68;;
75470;SDS011;64051;46.320;48.028;2023-02-28T18:58:51;16.10;;;6.40;;
75470;SDS011;64051;46.320;48.028;2023-02-28T19:03:50;16.40;;;6.78;;
75470;SDS011;64051;46.320;48.028;2023-02-28T19:06:23;16.52;;;7.15;;
75470;SDS011;64051;46.320;48.028;2023-02-28T19:08:53;15.07;;;6.10;;
75470;SDS011;64051;46.320;48.028;2023-02-28T19:11:26;16.48;;;6.18;;
75470;SDS011;64051;46.320;48.028;2023-02-28T19:13:56;17.73;;;7.03;;
75470;SDS011;64051;46.320;48.028;2023-02-28T19:16:28;13.68;;;6.13;;
75470;SDS011;64051;46.320;48.028;2023-02-28T19:18:56;16.70;;;6.97;;
75470;SDS011;64051;46.320;48.028;2023-02-28T19:21:25;16.73;;;6.63;;
75470;SDS011;64051;46.320;48.028;2023-02-28T19:23:52;16.35;;;7.22;;
75470;SDS011;64051;46.320;48.028;2023-02-28T19:26:26;16.67;;;6.80;;
75470;SDS011;64051;46.320;48.028;2023-02-28T19:28:53;19.17;;;6.80;;
75470;SDS011;64051;46.320;48.028;2023-02-28T19:31:23;21.67;;;7.45;;
75470;SDS011;64051;46.320;48.028;2023-02-28T19:33:59;18.80;;;8.40;;
75470;SDS011;64051;46.320;48.028;2023-02-28T19:36:26;19.67;;;7.72;;
75470;SDS011;64051;46.320;48.028;2023-02-28T19:38:52;15.40;;;7.57;;
75470;SDS011;64051;46.320;48.028;2023-02-28T19:41:24;18.45;;;7.93;;
75470;SDS011;64051;46.320;48.028;2023-02-28T19:43:51;20.25;;;10.43;;
75470;SDS011;64051;46.320;48.028;2023-02-28T19:46:21;25.13;;;10.77;;
75470;SDS011;64051;46.320;48.028;2023-02-28T19:48:53;22.10;;;9.38;;
75470;SDS011;64051;46.320;48.028;2023-02-28T19:51:19;23.02;;;10.15;;
75470;SDS011;64051;46.320;48.028;2023-02-28T19:53:45;21.20;;;8.68;;
75470;SDS011;64051;46.320;48.028;2023-02-28T19:56:14;20.05;;;7.65;;